Adak Island, Alaska
Current Conditions -  °F | °C
As of 2:36 AM on Saturday 25 Oct 2014 (Local Time) from PADK Reporting Station
Few Clouds Few Clouds  
Wind Chill: 30°   Ceiling: Unl
Heat Index: 36°   Visibility: 10mi
Dew Point: 30°   Wind: 7mph
Humidity: 81%   Direction: 220°SW
Pressure: 30.08"   Gusts: NA
Location:  51.88°N, 176.65°W
Report Text: PADK 251136Z AUTO 22006KT 10SM FEW041 02/M01 A3008 RMK AO1
Loading
Personal Weather Stations






























Interactive Weather Map
Tropical Storm Tracking
New forecast layout! Learn more

10-Day Weather Forecast

Advertisements
Track Severe Weather on mobile